sensor_id;sensor_type;location;lat;lon;timestamp;P1;durP1;ratioP1;P2;durP2;ratioP2
82242;SDS011;71844;51.528;4.442;2024-01-30T00:03:04;3.95;;;2.05;;
82242;SDS011;71844;51.528;4.442;2024-01-30T00:05:30;4.95;;;2.60;;
82242;SDS011;71844;51.528;4.442;2024-01-30T00:07:57;7.22;;;2.90;;
82242;SDS011;71844;51.528;4.442;2024-01-30T00:10:24;5.15;;;2.63;;
82242;SDS011;71844;51.528;4.442;2024-01-30T00:12:51;6.00;;;3.08;;
82242;SDS011;71844;51.528;4.442;2024-01-30T00:15:19;5.38;;;2.75;;
82242;SDS011;71844;51.528;4.442;2024-01-30T00:17:45;7.10;;;3.22;;
82242;SDS011;71844;51.528;4.442;2024-01-30T00:20:12;6.50;;;3.50;;
82242;SDS011;71844;51.528;4.442;2024-01-30T00:22:39;7.65;;;2.97;;
82242;SDS011;71844;51.528;4.442;2024-01-30T00:25:06;5.97;;;3.17;;
82242;SDS011;71844;51.528;4.442;2024-01-30T00:27:33;6.05;;;3.17;;
82242;SDS011;71844;51.528;4.442;2024-01-30T00:30:00;7.18;;;3.30;;
82242;SDS011;71844;51.528;4.442;2024-01-30T00:32:27;7.60;;;2.95;;
82242;SDS011;71844;51.528;4.442;2024-01-30T00:34:54;5.82;;;2.95;;
82242;SDS011;71844;51.528;4.442;2024-01-30T00:37:21;5.15;;;3.03;;
82242;SDS011;71844;51.528;4.442;2024-01-30T00:39:48;6.28;;;3.25;;
82242;SDS011;71844;51.528;4.442;2024-01-30T00:42:15;5.63;;;2.72;;
82242;SDS011;71844;51.528;4.442;2024-01-30T00:44:42;6.22;;;3.13;;
82242;SDS011;71844;51.528;4.442;2024-01-30T00:47:09;5.10;;;2.83;;
82242;SDS011;71844;51.528;4.442;2024-01-30T00:49:36;7.18;;;3.33;;
82242;SDS011;71844;51.528;4.442;2024-01-30T00:52:03;5.45;;;2.70;;
82242;SDS011;71844;51.528;4.442;2024-01-30T00:54:30;5.82;;;2.85;;
82242;SDS011;71844;51.528;4.442;2024-01-30T00:56:57;5.75;;;2.92;;
82242;SDS011;71844;51.528;4.442;2024-01-30T00:59:24;7.07;;;2.95;;
82242;SDS011;71844;51.528;4.442;2024-01-30T01:01:51;6.07;;;3.20;;
82242;SDS011;71844;51.528;4.442;2024-01-30T01:04:18;7.05;;;2.88;;
82242;SDS011;71844;51.528;4.442;2024-01-30T01:06:45;7.60;;;2.95;;
82242;SDS011;71844;51.528;4.442;2024-01-30T01:09:12;8.65;;;2.95;;
82242;SDS011;71844;51.528;4.442;2024-01-30T01:11:39;12.48;;;2.90;;
82242;SDS011;71844;51.528;4.442;2024-01-30T01:14:06;5.85;;;2.88;;
82242;SDS011;71844;51.528;4.442;2024-01-30T01:16:33;5.38;;;2.88;;
82242;SDS011;71844;51.528;4.442;2024-01-30T01:19:00;6.47;;;3.25;;
82242;SDS011;71844;51.528;4.442;2024-01-30T01:21:27;7.40;;;3.42;;
82242;SDS011;71844;51.528;4.442;2024-01-30T01:23:54;8.10;;;3.28;;
82242;SDS011;71844;51.528;4.442;2024-01-30T01:26:21;7.10;;;3.03;;
82242;SDS011;71844;51.528;4.442;2024-01-30T01:28:48;7.40;;;3.25;;
82242;SDS011;71844;51.528;4.442;2024-01-30T01:31:15;5.55;;;2.88;;
82242;SDS011;71844;51.528;4.442;2024-01-30T01:33:44;5.47;;;2.42;;
82242;SDS011;71844;51.528;4.442;2024-01-30T01:36:11;5.18;;;2.90;;
82242;SDS011;71844;51.528;4.442;2024-01-30T01:38:39;5.15;;;2.80;;
82242;SDS011;71844;51.528;4.442;2024-01-30T01:41:06;6.15;;;2.90;;
82242;SDS011;71844;51.528;4.442;2024-01-30T01:43:33;5.88;;;2.65;;
82242;SDS011;71844;51.528;4.442;2024-01-30T01:46:00;7.53;;;2.92;;
82242;SDS011;71844;51.528;4.442;2024-01-30T01:48:27;7.30;;;3.67;;
82242;SDS011;71844;51.528;4.442;2024-01-30T01:50:55;5.97;;;2.60;;
82242;SDS011;71844;51.528;4.442;2024-01-30T01:53:23;5.07;;;2.92;;
82242;SDS011;71844;51.528;4.442;2024-01-30T01:55:50;5.63;;;3.03;;
82242;SDS011;71844;51.528;4.442;2024-01-30T01:58:19;5.47;;;2.83;;
82242;SDS011;71844;51.528;4.442;2024-01-30T02:03:46;5.55;;;2.78;;
82242;SDS011;71844;51.528;4.442;2024-01-30T02:06:14;5.22;;;2.80;;
82242;SDS011;71844;51.528;4.442;2024-01-30T02:08:41;6.80;;;2.78;;
82242;SDS011;71844;51.528;4.442;2024-01-30T02:11:09;6.57;;;2.45;;
82242;SDS011;71844;51.528;4.442;2024-01-30T02:13:36;5.50;;;2.80;;
82242;SDS011;71844;51.528;4.442;2024-01-30T02:16:03;5.80;;;2.78;;
82242;SDS011;71844;51.528;4.442;2024-01-30T02:18:30;5.43;;;2.75;;
82242;SDS011;71844;51.528;4.442;2024-01-30T02:20:58;5.25;;;2.65;;
82242;SDS011;71844;51.528;4.442;2024-01-30T02:23:28;5.32;;;2.75;;
82242;SDS011;71844;51.528;4.442;2024-01-30T02:25:55;6.82;;;3.22;;
82242;SDS011;71844;51.528;4.442;2024-01-30T02:28:22;4.30;;;2.35;;
82242;SDS011;71844;51.528;4.442;2024-01-30T02:30:49;6.80;;;3.45;;
82242;SDS011;71844;51.528;4.442;2024-01-30T02:33:16;5.15;;;2.88;;
82242;SDS011;71844;51.528;4.442;2024-01-30T02:35:43;6.60;;;3.03;;
82242;SDS011;71844;51.528;4.442;2024-01-30T02:38:10;6.47;;;3.15;;
82242;SDS011;71844;51.528;4.442;2024-01-30T02:40:37;5.22;;;2.97;;
82242;SDS011;71844;51.528;4.442;2024-01-30T02:43:04;5.72;;;2.40;;
82242;SDS011;71844;51.528;4.442;2024-01-30T02:45:31;7.45;;;3.35;;
82242;SDS011;71844;51.528;4.442;2024-01-30T02:47:58;4.75;;;2.47;;
82242;SDS011;71844;51.528;4.442;2024-01-30T02:50:25;8.02;;;4.65;;
82242;SDS011;71844;51.528;4.442;2024-01-30T02:52:52;5.32;;;2.88;;
82242;SDS011;71844;51.528;4.442;2024-01-30T02:55:19;4.72;;;2.63;;
82242;SDS011;71844;51.528;4.442;2024-01-30T02:57:46;5.53;;;2.88;;
82242;SDS011;71844;51.528;4.442;2024-01-30T03:00:13;7.15;;;3.15;;
82242;SDS011;71844;51.528;4.442;2024-01-30T03:02:40;5.22;;;3.30;;
82242;SDS011;71844;51.528;4.442;2024-01-30T03:05:07;5.50;;;2.92;;
82242;SDS011;71844;51.528;4.442;2024-01-30T03:07:34;6.25;;;3.17;;
82242;SDS011;71844;51.528;4.442;2024-01-30T03:10:02;5.85;;;2.72;;
82242;SDS011;71844;51.528;4.442;2024-01-30T03:12:30;6.85;;;3.10;;
82242;SDS011;71844;51.528;4.442;2024-01-30T03:14:57;6.25;;;2.95;;
82242;SDS011;71844;51.528;4.442;2024-01-30T03:17:24;6.90;;;3.25;;
82242;SDS011;71844;51.528;4.442;2024-01-30T03:19:51;6.85;;;3.63;;
82242;SDS011;71844;51.528;4.442;2024-01-30T03:22:18;6.05;;;3.00;;
82242;SDS011;71844;51.528;4.442;2024-01-30T03:24:45;5.53;;;2.72;;
82242;SDS011;71844;51.528;4.442;2024-01-30T03:27:15;6.50;;;2.70;;
82242;SDS011;71844;51.528;4.442;2024-01-30T03:29:42;6.88;;;3.33;;
82242;SDS011;71844;51.528;4.442;2024-01-30T03:32:12;6.97;;;3.42;;
82242;SDS011;71844;51.528;4.442;2024-01-30T03:34:39;6.55;;;2.65;;
82242;SDS011;71844;51.528;4.442;2024-01-30T03:37:06;9.23;;;3.63;;
82242;SDS011;71844;51.528;4.442;2024-01-30T03:39:33;5.00;;;2.45;;
82242;SDS011;71844;51.528;4.442;2024-01-30T03:42:00;6.00;;;3.28;;
82242;SDS011;71844;51.528;4.442;2024-01-30T03:44:27;5.78;;;2.95;;
82242;SDS011;71844;51.528;4.442;2024-01-30T03:46:53;6.25;;;2.83;;
82242;SDS011;71844;51.528;4.442;2024-01-30T03:49:20;4.85;;;2.70;;
82242;SDS011;71844;51.528;4.442;2024-01-30T03:51:47;5.18;;;2.75;;
82242;SDS011;71844;51.528;4.442;2024-01-30T03:54:14;5.20;;;2.97;;
82242;SDS011;71844;51.528;4.442;2024-01-30T03:56:42;5.47;;;2.72;;
82242;SDS011;71844;51.528;4.442;2024-01-30T03:59:09;6.70;;;3.45;;
82242;SDS011;71844;51.528;4.442;2024-01-30T04:01:36;5.45;;;3.40;;
82242;SDS011;71844;51.528;4.442;2024-01-30T04:04:02;5.50;;;3.13;;
82242;SDS011;71844;51.528;4.442;2024-01-30T04:06:30;5.45;;;2.85;;
82242;SDS011;71844;51.528;4.442;2024-01-30T04:08:56;5.90;;;3.10;;
82242;SDS011;71844;51.528;4.442;2024-01-30T04:11:23;5.82;;;3.17;;
82242;SDS011;71844;51.528;4.442;2024-01-30T04:13:50;4.97;;;2.92;;
82242;SDS011;71844;51.528;4.442;2024-01-30T04:16:20;6.93;;;2.83;;
82242;SDS011;71844;51.528;4.442;2024-01-30T04:18:51;7.05;;;2.97;;
82242;SDS011;71844;51.528;4.442;2024-01-30T04:21:20;4.95;;;2.92;;
82242;SDS011;71844;51.528;4.442;2024-01-30T04:23:53;5.35;;;2.80;;
82242;SDS011;71844;51.528;4.442;2024-01-30T04:26:20;6.60;;;3.25;;
82242;SDS011;71844;51.528;4.442;2024-01-30T04:28:46;5.88;;;3.30;;
82242;SDS011;71844;51.528;4.442;2024-01-30T04:31:13;5.53;;;2.88;;
82242;SDS011;71844;51.528;4.442;2024-01-30T04:33:40;6.78;;;3.05;;
82242;SDS011;71844;51.528;4.442;2024-01-30T04:36:08;5.45;;;2.78;;
82242;SDS011;71844;51.528;4.442;2024-01-30T04:38:38;7.97;;;3.55;;
82242;SDS011;71844;51.528;4.442;2024-01-30T04:41:05;7.15;;;2.67;;
82242;SDS011;71844;51.528;4.442;2024-01-30T04:43:32;6.25;;;2.65;;
82242;SDS011;71844;51.528;4.442;2024-01-30T04:45:59;4.68;;;2.45;;
82242;SDS011;71844;51.528;4.442;2024-01-30T04:48:26;6.43;;;3.90;;
82242;SDS011;71844;51.528;4.442;2024-01-30T04:50:53;7.65;;;3.97;;
82242;SDS011;71844;51.528;4.442;2024-01-30T04:53:22;6.45;;;4.32;;
82242;SDS011;71844;51.528;4.442;2024-01-30T04:55:49;7.45;;;4.03;;
82242;SDS011;71844;51.528;4.442;2024-01-30T04:58:16;6.53;;;3.80;;
82242;SDS011;71844;51.528;4.442;2024-01-30T05:00:43;6.63;;;3.80;;
82242;SDS011;71844;51.528;4.442;2024-01-30T05:03:12;6.55;;;3.30;;
82242;SDS011;71844;51.528;4.442;2024-01-30T05:05:39;5.57;;;2.85;;
82242;SDS011;71844;51.528;4.442;2024-01-30T05:08:06;4.72;;;2.30;;
82242;SDS011;71844;51.528;4.442;2024-01-30T05:10:41;5.47;;;3.17;;
82242;SDS011;71844;51.528;4.442;2024-01-30T05:13:08;6.18;;;3.17;;
82242;SDS011;71844;51.528;4.442;2024-01-30T05:18:10;4.90;;;2.53;;
82242;SDS011;71844;51.528;4.442;2024-01-30T05:20:37;6.45;;;3.08;;
82242;SDS011;71844;51.528;4.442;2024-01-30T05:23:03;5.55;;;3.05;;
82242;SDS011;71844;51.528;4.442;2024-01-30T05:25:30;5.18;;;2.90;;
82242;SDS011;71844;51.528;4.442;2024-01-30T05:27:57;5.55;;;2.83;;
82242;SDS011;71844;51.528;4.442;2024-01-30T05:30:24;6.05;;;2.75;;
82242;SDS011;71844;51.528;4.442;2024-01-30T05:32:51;5.43;;;3.20;;
82242;SDS011;71844;51.528;4.442;2024-01-30T05:35:19;6.05;;;3.30;;
82242;SDS011;71844;51.528;4.442;2024-01-30T05:37:51;7.55;;;3.47;;
82242;SDS011;71844;51.528;4.442;2024-01-30T05:40:18;6.00;;;3.65;;
82242;SDS011;71844;51.528;4.442;2024-01-30T05:42:44;5.15;;;3.38;;
82242;SDS011;71844;51.528;4.442;2024-01-30T05:45:11;5.68;;;3.45;;
82242;SDS011;71844;51.528;4.442;2024-01-30T05:47:39;6.88;;;3.05;;
82242;SDS011;71844;51.528;4.442;2024-01-30T05:50:06;6.85;;;3.35;;
82242;SDS011;71844;51.528;4.442;2024-01-30T05:52:33;5.90;;;2.67;;
82242;SDS011;71844;51.528;4.442;2024-01-30T05:55:00;5.93;;;2.95;;
82242;SDS011;71844;51.528;4.442;2024-01-30T05:57:27;7.25;;;2.72;;
82242;SDS011;71844;51.528;4.442;2024-01-30T05:59:54;6.05;;;3.20;;
82242;SDS011;71844;51.528;4.442;2024-01-30T06:02:21;7.55;;;3.15;;
82242;SDS011;71844;51.528;4.442;2024-01-30T06:04:48;4.88;;;2.83;;
82242;SDS011;71844;51.528;4.442;2024-01-30T06:07:15;7.32;;;3.10;;
82242;SDS011;71844;51.528;4.442;2024-01-30T06:09:44;5.55;;;2.78;;
82242;SDS011;71844;51.528;4.442;2024-01-30T06:12:12;6.75;;;3.53;;
82242;SDS011;71844;51.528;4.442;2024-01-30T06:14:39;7.05;;;2.90;;
82242;SDS011;71844;51.528;4.442;2024-01-30T06:17:09;5.93;;;3.30;;
82242;SDS011;71844;51.528;4.442;2024-01-30T06:19:38;4.85;;;2.42;;
82242;SDS011;71844;51.528;4.442;2024-01-30T06:22:05;6.05;;;2.47;;
82242;SDS011;71844;51.528;4.442;2024-01-30T06:24:32;6.60;;;3.05;;
82242;SDS011;71844;51.528;4.442;2024-01-30T06:27:00;5.75;;;2.92;;
82242;SDS011;71844;51.528;4.442;2024-01-30T06:29:27;6.40;;;2.70;;
82242;SDS011;71844;51.528;4.442;2024-01-30T06:31:54;7.30;;;3.17;;
82242;SDS011;71844;51.528;4.442;2024-01-30T06:34:21;6.90;;;3.10;;
82242;SDS011;71844;51.528;4.442;2024-01-30T06:36:48;5.13;;;2.85;;
82242;SDS011;71844;51.528;4.442;2024-01-30T06:39:14;5.72;;;3.08;;
82242;SDS011;71844;51.528;4.442;2024-01-30T06:41:41;6.30;;;3.03;;
82242;SDS011;71844;51.528;4.442;2024-01-30T06:44:08;6.10;;;3.28;;
82242;SDS011;71844;51.528;4.442;2024-01-30T06:46:35;6.47;;;3.60;;
82242;SDS011;71844;51.528;4.442;2024-01-30T06:49:01;6.95;;;3.33;;
82242;SDS011;71844;51.528;4.442;2024-01-30T06:51:29;5.90;;;2.95;;
82242;SDS011;71844;51.528;4.442;2024-01-30T06:53:56;6.97;;;3.45;;
82242;SDS011;71844;51.528;4.442;2024-01-30T06:56:23;8.32;;;2.85;;
82242;SDS011;71844;51.528;4.442;2024-01-30T06:58:50;7.78;;;3.20;;
82242;SDS011;71844;51.528;4.442;2024-01-30T07:01:20;8.38;;;3.38;;
82242;SDS011;71844;51.528;4.442;2024-01-30T07:03:47;7.95;;;3.30;;
82242;SDS011;71844;51.528;4.442;2024-01-30T07:06:14;6.43;;;2.88;;
82242;SDS011;71844;51.528;4.442;2024-01-30T07:08:41;7.55;;;3.08;;
82242;SDS011;71844;51.528;4.442;2024-01-30T07:11:08;6.30;;;2.83;;
82242;SDS011;71844;51.528;4.442;2024-01-30T07:13:35;6.88;;;3.28;;
82242;SDS011;71844;51.528;4.442;2024-01-30T07:16:02;4.63;;;2.75;;
82242;SDS011;71844;51.528;4.442;2024-01-30T07:21:35;8.95;;;2.90;;
82242;SDS011;71844;51.528;4.442;2024-01-30T07:24:02;7.65;;;3.20;;
82242;SDS011;71844;51.528;4.442;2024-01-30T07:26:29;6.15;;;2.80;;
82242;SDS011;71844;51.528;4.442;2024-01-30T07:28:56;5.07;;;2.88;;
82242;SDS011;71844;51.528;4.442;2024-01-30T07:31:22;5.82;;;2.63;;
82242;SDS011;71844;51.528;4.442;2024-01-30T07:33:50;7.43;;;2.90;;
82242;SDS011;71844;51.528;4.442;2024-01-30T07:36:17;14.18;;;3.40;;
82242;SDS011;71844;51.528;4.442;2024-01-30T07:38:43;5.78;;;2.85;;
82242;SDS011;71844;51.528;4.442;2024-01-30T07:41:10;5.05;;;2.67;;
82242;SDS011;71844;51.528;4.442;2024-01-30T07:43:38;5.15;;;2.90;;
82242;SDS011;71844;51.528;4.442;2024-01-30T07:46:05;6.20;;;3.28;;
82242;SDS011;71844;51.528;4.442;2024-01-30T07:48:33;8.23;;;3.30;;
82242;SDS011;71844;51.528;4.442;2024-01-30T07:51:00;6.97;;;3.35;;
82242;SDS011;71844;51.528;4.442;2024-01-30T07:53:27;6.05;;;3.30;;
82242;SDS011;71844;51.528;4.442;2024-01-30T07:55:54;8.30;;;3.22;;
82242;SDS011;71844;51.528;4.442;2024-01-30T07:58:21;5.65;;;3.00;;
82242;SDS011;71844;51.528;4.442;2024-01-30T08:00:48;6.40;;;3.15;;
82242;SDS011;71844;51.528;4.442;2024-01-30T08:03:15;8.07;;;4.10;;
82242;SDS011;71844;51.528;4.442;2024-01-30T08:05:43;7.22;;;3.17;;
82242;SDS011;71844;51.528;4.442;2024-01-30T08:08:10;7.28;;;3.80;;
82242;SDS011;71844;51.528;4.442;2024-01-30T08:10:37;8.63;;;3.72;;
82242;SDS011;71844;51.528;4.442;2024-01-30T08:13:04;6.75;;;3.25;;
82242;SDS011;71844;51.528;4.442;2024-01-30T08:15:31;6.57;;;2.95;;
82242;SDS011;71844;51.528;4.442;2024-01-30T08:17:58;6.13;;;2.92;;
82242;SDS011;71844;51.528;4.442;2024-01-30T08:20:25;8.85;;;3.63;;
82242;SDS011;71844;51.528;4.442;2024-01-30T08:22:52;6.10;;;3.28;;
82242;SDS011;71844;51.528;4.442;2024-01-30T08:25:19;5.57;;;3.20;;
82242;SDS011;71844;51.528;4.442;2024-01-30T08:27:46;7.05;;;3.40;;
82242;SDS011;71844;51.528;4.442;2024-01-30T08:30:13;7.53;;;3.80;;
82242;SDS011;71844;51.528;4.442;2024-01-30T08:32:40;8.57;;;3.67;;
82242;SDS011;71844;51.528;4.442;2024-01-30T08:35:07;8.63;;;4.00;;
82242;SDS011;71844;51.528;4.442;2024-01-30T08:37:35;8.32;;;4.00;;
82242;SDS011;71844;51.528;4.442;2024-01-30T08:40:03;7.38;;;3.58;;
82242;SDS011;71844;51.528;4.442;2024-01-30T08:42:31;8.05;;;4.25;;
82242;SDS011;71844;51.528;4.442;2024-01-30T08:45:00;8.50;;;4.10;;
82242;SDS011;71844;51.528;4.442;2024-01-30T08:47:27;7.88;;;4.30;;
82242;SDS011;71844;51.528;4.442;2024-01-30T08:49:54;9.73;;;4.18;;
82242;SDS011;71844;51.528;4.442;2024-01-30T08:52:21;7.80;;;4.13;;
82242;SDS011;71844;51.528;4.442;2024-01-30T08:54:48;8.93;;;3.67;;
82242;SDS011;71844;51.528;4.442;2024-01-30T08:57:17;10.32;;;3.47;;
82242;SDS011;71844;51.528;4.442;2024-01-30T08:59:44;7.05;;;3.72;;
82242;SDS011;71844;51.528;4.442;2024-01-30T09:02:13;7.53;;;3.97;;
82242;SDS011;71844;51.528;4.442;2024-01-30T09:04:42;9.73;;;4.30;;
82242;SDS011;71844;51.528;4.442;2024-01-30T09:09:40;9.57;;;3.88;;
82242;SDS011;71844;51.528;4.442;2024-01-30T09:12:07;7.90;;;4.10;;
82242;SDS011;71844;51.528;4.442;2024-01-30T09:14:36;9.95;;;4.30;;
82242;SDS011;71844;51.528;4.442;2024-01-30T09:17:03;10.25;;;4.40;;
82242;SDS011;71844;51.528;4.442;2024-01-30T09:19:30;7.20;;;3.53;;
82242;SDS011;71844;51.528;4.442;2024-01-30T09:21:57;9.68;;;4.32;;
82242;SDS011;71844;51.528;4.442;2024-01-30T09:24:25;7.70;;;3.80;;
82242;SDS011;71844;51.528;4.442;2024-01-30T09:29:28;8.50;;;3.88;;
82242;SDS011;71844;51.528;4.442;2024-01-30T09:31:55;7.22;;;4.05;;
82242;SDS011;71844;51.528;4.442;2024-01-30T09:34:21;7.15;;;3.65;;
82242;SDS011;71844;51.528;4.442;2024-01-30T09:36:48;7.28;;;3.75;;
82242;SDS011;71844;51.528;4.442;2024-01-30T09:39:15;9.35;;;4.03;;
82242;SDS011;71844;51.528;4.442;2024-01-30T09:41:49;8.73;;;3.83;;
82242;SDS011;71844;51.528;4.442;2024-01-30T09:44:37;7.65;;;3.55;;
82242;SDS011;71844;51.528;4.442;2024-01-30T09:47:08;7.85;;;3.72;;
82242;SDS011;71844;51.528;4.442;2024-01-30T09:49:35;7.03;;;3.72;;
82242;SDS011;71844;51.528;4.442;2024-01-30T09:52:03;8.48;;;3.58;;
82242;SDS011;71844;51.528;4.442;2024-01-30T09:54:31;9.07;;;3.70;;
82242;SDS011;71844;51.528;4.442;2024-01-30T09:57:02;10.18;;;3.85;;
82242;SDS011;71844;51.528;4.442;2024-01-30T09:59:29;9.43;;;3.88;;
82242;SDS011;71844;51.528;4.442;2024-01-30T10:01:57;7.45;;;3.63;;
82242;SDS011;71844;51.528;4.442;2024-01-30T10:04:24;9.90;;;4.32;;
82242;SDS011;71844;51.528;4.442;2024-01-30T10:06:51;7.80;;;3.53;;
82242;SDS011;71844;51.528;4.442;2024-01-30T10:09:18;6.95;;;3.58;;
82242;SDS011;71844;51.528;4.442;2024-01-30T10:11:45;7.38;;;3.45;;
82242;SDS011;71844;51.528;4.442;2024-01-30T10:14:12;7.07;;;3.13;;
82242;SDS011;71844;51.528;4.442;2024-01-30T10:16:39;6.60;;;3.20;;
82242;SDS011;71844;51.528;4.442;2024-01-30T10:19:06;6.07;;;3.05;;
82242;SDS011;71844;51.528;4.442;2024-01-30T10:21:33;5.93;;;2.65;;
82242;SDS011;71844;51.528;4.442;2024-01-30T10:24:00;6.85;;;2.47;;
82242;SDS011;71844;51.528;4.442;2024-01-30T10:26:26;7.03;;;2.60;;
82242;SDS011;71844;51.528;4.442;2024-01-30T10:28:55;5.75;;;2.60;;
82242;SDS011;71844;51.528;4.442;2024-01-30T10:31:22;5.60;;;2.38;;
82242;SDS011;71844;51.528;4.442;2024-01-30T10:33:49;8.50;;;2.30;;
82242;SDS011;71844;51.528;4.442;2024-01-30T10:36:16;5.10;;;1.95;;
82242;SDS011;71844;51.528;4.442;2024-01-30T10:38:46;7.43;;;2.10;;
82242;SDS011;71844;51.528;4.442;2024-01-30T10:41:17;5.82;;;1.83;;
82242;SDS011;71844;51.528;4.442;2024-01-30T10:43:50;4.22;;;1.88;;
82242;SDS011;71844;51.528;4.442;2024-01-30T10:46:29;5.90;;;1.40;;
82242;SDS011;71844;51.528;4.442;2024-01-30T10:48:58;3.67;;;1.33;;
82242;SDS011;71844;51.528;4.442;2024-01-30T10:51:27;6.43;;;1.17;;
82242;SDS011;71844;51.528;4.442;2024-01-30T10:53:55;5.55;;;1.58;;
82242;SDS011;71844;51.528;4.442;2024-01-30T10:56:24;4.97;;;1.80;;
82242;SDS011;71844;51.528;4.442;2024-01-30T10:58:52;5.93;;;1.10;;
82242;SDS011;71844;51.528;4.442;2024-01-30T11:01:19;2.45;;;0.80;;
82242;SDS011;71844;51.528;4.442;2024-01-30T11:03:50;5.13;;;0.80;;
82242;SDS011;71844;51.528;4.442;2024-01-30T11:06:24;2.47;;;0.65;;
82242;SDS011;71844;51.528;4.442;2024-01-30T11:09:01;1.63;;;0.32;;
82242;SDS011;71844;51.528;4.442;2024-01-30T11:11:56;1.85;;;0.60;;
82242;SDS011;71844;51.528;4.442;2024-01-30T11:14:29;1.13;;;0.20;;
82242;SDS011;71844;51.528;4.442;2024-01-30T11:16:59;4.22;;;0.45;;
82242;SDS011;71844;51.528;4.442;2024-01-30T11:19:26;1.77;;;0.40;;
82242;SDS011;71844;51.528;4.442;2024-01-30T11:21:57;1.30;;;0.40;;
82242;SDS011;71844;51.528;4.442;2024-01-30T11:24:24;3.47;;;0.50;;
82242;SDS011;71844;51.528;4.442;2024-01-30T11:26:55;2.72;;;0.40;;
82242;SDS011;71844;51.528;4.442;2024-01-30T11:29:27;1.27;;;0.30;;
82242;SDS011;71844;51.528;4.442;2024-01-30T11:31:55;1.40;;;0.32;;
82242;SDS011;71844;51.528;4.442;2024-01-30T11:34:23;2.20;;;0.28;;
82242;SDS011;71844;51.528;4.442;2024-01-30T11:36:57;0.70;;;0.13;;
82242;SDS011;71844;51.528;4.442;2024-01-30T11:39:26;1.80;;;0.22;;
82242;SDS011;71844;51.528;4.442;2024-01-30T11:41:53;2.08;;;0.60;;
82242;SDS011;71844;51.528;4.442;2024-01-30T11:44:21;2.15;;;0.25;;
82242;SDS011;71844;51.528;4.442;2024-01-30T11:46:49;1.75;;;0.55;;
82242;SDS011;71844;51.528;4.442;2024-01-30T11:49:17;2.35;;;0.30;;
82242;SDS011;71844;51.528;4.442;2024-01-30T11:51:47;2.15;;;0.60;;
82242;SDS011;71844;51.528;4.442;2024-01-30T11:54:15;1.42;;;0.95;;
82242;SDS011;71844;51.528;4.442;2024-01-30T11:56:43;1.80;;;0.60;;
82242;SDS011;71844;51.528;4.442;2024-01-30T11:59:10;2.10;;;0.45;;
82242;SDS011;71844;51.528;4.442;2024-01-30T12:01:37;1.30;;;0.32;;
82242;SDS011;71844;51.528;4.442;2024-01-30T12:04:04;2.00;;;0.17;;
82242;SDS011;71844;51.528;4.442;2024-01-30T12:06:36;1.30;;;0.30;;
82242;SDS011;71844;51.528;4.442;2024-01-30T12:09:03;1.73;;;0.55;;
82242;SDS011;71844;51.528;4.442;2024-01-30T12:11:30;1.17;;;0.30;;
82242;SDS011;71844;51.528;4.442;2024-01-30T12:13:57;2.63;;;0.32;;
82242;SDS011;71844;51.528;4.442;2024-01-30T12:16:24;2.05;;;0.43;;
82242;SDS011;71844;51.528;4.442;2024-01-30T12:18:59;3.70;;;0.50;;
82242;SDS011;71844;51.528;4.442;2024-01-30T12:21:28;5.43;;;0.55;;
82242;SDS011;71844;51.528;4.442;2024-01-30T12:23:56;2.63;;;0.82;;
82242;SDS011;71844;51.528;4.442;2024-01-30T12:26:24;3.35;;;1.20;;
82242;SDS011;71844;51.528;4.442;2024-01-30T12:28:54;4.97;;;0.95;;
82242;SDS011;71844;51.528;4.442;2024-01-30T12:31:25;4.93;;;1.80;;
82242;SDS011;71844;51.528;4.442;2024-01-30T12:33:54;5.85;;;1.23;;
82242;SDS011;71844;51.528;4.442;2024-01-30T12:36:22;3.75;;;0.90;;
82242;SDS011;71844;51.528;4.442;2024-01-30T12:38:49;5.68;;;1.33;;
82242;SDS011;71844;51.528;4.442;2024-01-30T12:41:17;5.35;;;1.27;;
82242;SDS011;71844;51.528;4.442;2024-01-30T12:43:45;3.28;;;1.15;;
82242;SDS011;71844;51.528;4.442;2024-01-30T12:46:16;4.25;;;1.20;;
82242;SDS011;71844;51.528;4.442;2024-01-30T12:48:43;5.32;;;1.05;;
82242;SDS011;71844;51.528;4.442;2024-01-30T12:51:10;4.95;;;1.00;;
82242;SDS011;71844;51.528;4.442;2024-01-30T12:53:37;4.53;;;1.08;;
82242;SDS011;71844;51.528;4.442;2024-01-30T12:56:04;3.00;;;0.68;;
82242;SDS011;71844;51.528;4.442;2024-01-30T12:58:31;4.10;;;1.17;;
82242;SDS011;71844;51.528;4.442;2024-01-30T13:00:58;5.30;;;0.95;;
82242;SDS011;71844;51.528;4.442;2024-01-30T13:03:25;3.75;;;0.80;;
82242;SDS011;71844;51.528;4.442;2024-01-30T13:05:53;7.55;;;1.05;;
82242;SDS011;71844;51.528;4.442;2024-01-30T13:08:20;7.90;;;1.33;;
82242;SDS011;71844;51.528;4.442;2024-01-30T13:10:47;5.22;;;0.85;;
82242;SDS011;71844;51.528;4.442;2024-01-30T13:13:15;3.33;;;0.80;;
82242;SDS011;71844;51.528;4.442;2024-01-30T13:15:46;8.15;;;1.30;;
82242;SDS011;71844;51.528;4.442;2024-01-30T13:18:14;3.33;;;1.08;;
82242;SDS011;71844;51.528;4.442;2024-01-30T13:20:41;7.22;;;1.45;;
82242;SDS011;71844;51.528;4.442;2024-01-30T13:23:08;7.10;;;1.33;;
82242;SDS011;71844;51.528;4.442;2024-01-30T13:25:35;6.05;;;1.42;;
82242;SDS011;71844;51.528;4.442;2024-01-30T13:28:02;4.93;;;1.20;;
82242;SDS011;71844;51.528;4.442;2024-01-30T13:30:30;3.58;;;1.40;;
82242;SDS011;71844;51.528;4.442;2024-01-30T13:32:57;5.45;;;1.90;;
82242;SDS011;71844;51.528;4.442;2024-01-30T13:35:25;5.28;;;1.80;;
82242;SDS011;71844;51.528;4.442;2024-01-30T13:37:52;5.82;;;1.55;;
82242;SDS011;71844;51.528;4.442;2024-01-30T13:40:18;4.05;;;1.48;;
82242;SDS011;71844;51.528;4.442;2024-01-30T13:42:45;6.63;;;1.80;;
82242;SDS011;71844;51.528;4.442;2024-01-30T13:45:13;5.82;;;2.13;;
82242;SDS011;71844;51.528;4.442;2024-01-30T13:47:40;4.60;;;1.58;;
82242;SDS011;71844;51.528;4.442;2024-01-30T13:50:07;3.40;;;1.48;;
82242;SDS011;71844;51.528;4.442;2024-01-30T13:52:35;2.95;;;1.17;;
82242;SDS011;71844;51.528;4.442;2024-01-30T13:55:10;3.15;;;1.30;;
82242;SDS011;71844;51.528;4.442;2024-01-30T13:57:37;4.05;;;1.50;;
82242;SDS011;71844;51.528;4.442;2024-01-30T14:00:05;3.15;;;1.20;;
82242;SDS011;71844;51.528;4.442;2024-01-30T14:02:33;3.05;;;0.98;;
82242;SDS011;71844;51.528;4.442;2024-01-30T14:05:00;7.38;;;1.83;;
82242;SDS011;71844;51.528;4.442;2024-01-30T14:07:28;7.32;;;1.95;;
82242;SDS011;71844;51.528;4.442;2024-01-30T14:09:55;4.00;;;1.40;;
82242;SDS011;71844;51.528;4.442;2024-01-30T14:12:22;3.78;;;1.60;;
82242;SDS011;71844;51.528;4.442;2024-01-30T14:14:49;7.28;;;1.90;;
82242;SDS011;71844;51.528;4.442;2024-01-30T14:17:17;3.15;;;1.70;;
82242;SDS011;71844;51.528;4.442;2024-01-30T14:19:44;4.93;;;1.42;;
82242;SDS011;71844;51.528;4.442;2024-01-30T14:22:11;6.82;;;1.45;;
82242;SDS011;71844;51.528;4.442;2024-01-30T14:24:37;5.53;;;1.45;;
82242;SDS011;71844;51.528;4.442;2024-01-30T14:27:04;5.03;;;1.45;;
82242;SDS011;71844;51.528;4.442;2024-01-30T14:29:31;3.90;;;1.23;;
82242;SDS011;71844;51.528;4.442;2024-01-30T14:31:58;6.28;;;1.40;;
82242;SDS011;71844;51.528;4.442;2024-01-30T14:34:25;3.60;;;1.48;;
82242;SDS011;71844;51.528;4.442;2024-01-30T14:36:52;4.63;;;1.70;;
82242;SDS011;71844;51.528;4.442;2024-01-30T14:39:19;4.93;;;1.75;;
82242;SDS011;71844;51.528;4.442;2024-01-30T14:41:46;4.05;;;1.40;;
82242;SDS011;71844;51.528;4.442;2024-01-30T14:44:13;6.28;;;1.42;;
82242;SDS011;71844;51.528;4.442;2024-01-30T14:46:40;3.58;;;1.50;;
82242;SDS011;71844;51.528;4.442;2024-01-30T14:49:07;3.28;;;1.30;;
82242;SDS011;71844;51.528;4.442;2024-01-30T14:51:36;5.00;;;1.10;;
82242;SDS011;71844;51.528;4.442;2024-01-30T14:54:03;2.63;;;1.05;;
82242;SDS011;71844;51.528;4.442;2024-01-30T14:56:30;4.70;;;1.17;;
82242;SDS011;71844;51.528;4.442;2024-01-30T14:58:57;3.35;;;0.75;;
82242;SDS011;71844;51.528;4.442;2024-01-30T15:01:24;6.03;;;0.93;;
82242;SDS011;71844;51.528;4.442;2024-01-30T15:03:51;3.25;;;0.63;;
82242;SDS011;71844;51.528;4.442;2024-01-30T15:06:18;3.60;;;0.70;;